createdAt,value
2018-05-04T00:00:41.803Z,66.90
2018-05-04T00:03:09.256Z,67.00
2018-05-04T00:05:36.688Z,67.30
2018-05-04T00:08:04.137Z,67.30
2018-05-04T00:10:31.581Z,67.30
2018-05-04T00:12:59.801Z,67.40
2018-05-04T00:15:27.245Z,67.40
2018-05-04T00:17:54.681Z,67.50
2018-05-04T00:20:22.142Z,67.60
2018-05-04T00:22:49.576Z,67.80
2018-05-04T00:25:17.888Z,68.60
2018-05-04T00:27:45.332Z,68.00
2018-05-04T00:30:12.771Z,68.00
2018-05-04T00:32:40.208Z,68.00
2018-05-04T00:35:08.426Z,68.20
2018-05-04T00:37:35.857Z,68.20
2018-05-04T00:40:03.300Z,68.40
2018-05-04T00:42:31.500Z,68.60
2018-05-04T00:44:58.948Z,68.60
2018-05-04T00:47:26.384Z,68.70
2018-05-04T00:49:54.598Z,68.70
2018-05-04T00:52:22.051Z,68.70
2018-05-04T00:54:49.498Z,68.80
2018-05-04T00:57:16.936Z,68.80
2018-05-04T00:59:44.392Z,68.90
2018-05-04T01:02:11.837Z,68.90
2018-05-04T01:04:40.055Z,69.10
2018-05-04T01:07:07.498Z,69.10
2018-05-04T01:09:34.940Z,69.10
2018-05-04T01:12:02.387Z,69.30
2018-05-04T01:14:29.854Z,69.50
2018-05-04T01:16:57.288Z,69.50
2018-05-04T01:19:25.510Z,70.40
2018-05-04T01:21:52.952Z,69.80
2018-05-04T01:24:20.401Z,69.90
2018-05-04T01:26:47.831Z,70.60
2018-05-04T01:29:16.044Z,70.00
2018-05-04T01:31:43.475Z,70.00
2018-05-04T01:34:10.925Z,70.00
2018-05-04T01:36:38.377Z,70.20
2018-05-04T01:39:05.807Z,70.30
2018-05-04T01:41:34.026Z,70.50
2018-05-04T01:44:01.457Z,70.50
2018-05-04T01:46:28.914Z,70.60
2018-05-04T01:48:56.347Z,70.80
2018-05-04T01:51:24.559Z,71.40
2018-05-04T01:53:52.003Z,71.40
2018-05-04T01:56:19.454Z,71.60
2018-05-04T01:58:46.887Z,71.80
2018-05-04T02:01:15.105Z,71.80
2018-05-04T02:03:42.547Z,71.90
2018-05-04T02:06:10.006Z,71.90
2018-05-04T02:08:37.453Z,71.80
2018-05-04T02:11:04.916Z,71.70
2018-05-04T02:13:32.417Z,71.70
2018-05-04T02:15:59.857Z,71.70
2018-05-04T02:18:27.306Z,71.70
2018-05-04T02:20:54.749Z,71.70
2018-05-04T02:23:22.194Z,71.70
2018-05-04T02:25:49.656Z,72.40
2018-05-04T02:28:17.092Z,71.80
2018-05-04T02:30:44.566Z,72.00
2018-05-04T02:33:12.003Z,72.20
2018-05-04T02:35:39.462Z,72.30
2018-05-04T02:38:06.928Z,72.40
2018-05-04T02:40:34.392Z,72.40
2018-05-04T02:43:01.843Z,72.50
2018-05-04T02:45:29.307Z,72.60
2018-05-04T02:47:56.750Z,72.70
2018-05-04T02:50:24.185Z,72.80
2018-05-04T02:52:52.400Z,73.00
2018-05-04T02:55:19.857Z,73.00
2018-05-04T02:57:47.310Z,73.20
2018-05-04T03:00:14.755Z,73.40
2018-05-04T03:02:42.215Z,73.60
2018-05-04T03:05:09.665Z,73.70
2018-05-04T03:07:37.122Z,73.90
2018-05-04T03:10:04.553Z,74.10
2018-05-04T03:12:32.758Z,74.10
2018-05-04T03:15:00.196Z,74.70
2018-05-04T03:17:27.644Z,74.10
2018-05-04T03:19:55.085Z,74.10
2018-05-04T03:22:22.528Z,74.10
2018-05-04T03:24:50.742Z,74.30
2018-05-04T03:27:18.198Z,74.30
2018-05-04T03:29:45.657Z,74.40
2018-05-04T03:32:13.106Z,74.50
2018-05-04T03:34:40.560Z,74.50
2018-05-04T03:37:08.004Z,74.60
2018-05-04T03:39:35.448Z,74.70
2018-05-04T03:42:02.976Z,74.70
2018-05-04T03:44:31.322Z,74.90
2018-05-04T03:46:58.752Z,74.90
2018-05-04T03:49:26.204Z,75.00
2018-05-04T03:51:53.660Z,75.10
2018-05-04T03:54:21.109Z,75.10
2018-05-04T03:56:49.334Z,75.30
2018-05-04T03:59:28.647Z,75.30
2018-05-04T04:02:08.084Z,75.40
2018-05-04T04:04:35.528Z,75.60
2018-05-04T04:07:02.978Z,75.60
2018-05-04T04:09:30.417Z,75.60
2018-05-04T04:11:57.872Z,75.80
2018-05-04T04:14:25.317Z,75.80
2018-05-04T04:16:53.529Z,76.10
2018-05-04T04:19:20.982Z,76.10
2018-05-04T04:21:48.424Z,76.20
2018-05-04T04:24:15.863Z,76.40
2018-05-04T04:26:43.318Z,76.40
2018-05-04T04:29:10.837Z,76.40
2018-05-04T04:31:38.481Z,76.40
2018-05-04T04:34:05.937Z,76.90
2018-05-04T04:36:33.420Z,76.50
2018-05-04T04:39:00.935Z,77.10
2018-05-04T04:41:28.375Z,77.30
2018-05-04T04:43:55.848Z,76.50
2018-05-04T04:46:23.290Z,76.60
2018-05-04T04:48:50.731Z,76.60
2018-05-04T04:51:18.190Z,76.50
2018-05-04T04:53:45.635Z,76.60
2018-05-04T04:56:13.141Z,76.50
2018-05-04T04:58:50.057Z,76.50
2018-05-04T05:01:17.518Z,76.60
2018-05-04T05:03:45.742Z,76.60
2018-05-04T05:06:13.182Z,76.60
2018-05-04T05:08:40.639Z,76.60
2018-05-04T05:11:08.081Z,76.80
2018-05-04T05:13:35.596Z,76.70
2018-05-04T05:16:02.991Z,76.90
2018-05-04T05:18:30.432Z,77.00
2018-05-04T05:20:58.645Z,77.10
2018-05-04T05:23:26.108Z,77.10
2018-05-04T05:25:53.549Z,77.20
2018-05-04T05:28:21.009Z,77.20
2018-05-04T05:30:48.463Z,77.20
2018-05-04T05:33:15.909Z,77.20
2018-05-04T05:35:43.350Z,77.10
2018-05-04T05:38:10.814Z,77.10
2018-05-04T05:40:38.251Z,77.10
2018-05-04T05:43:05.695Z,77.10
2018-05-04T05:45:33.893Z,77.10
2018-05-04T05:48:01.346Z,77.10
2018-05-04T05:50:28.794Z,77.00
2018-05-04T05:52:56.246Z,77.10
2018-05-04T05:55:23.692Z,77.30
2018-05-04T05:57:51.933Z,77.80
2018-05-04T06:00:19.376Z,77.80
2018-05-04T06:02:51.280Z,78.00
2018-05-04T06:05:19.486Z,78.10
2018-05-04T06:07:46.939Z,78.10
2018-05-04T06:10:14.397Z,78.40
2018-05-04T06:12:41.849Z,78.20
2018-05-04T06:15:09.520Z,78.40
2018-05-04T06:17:36.752Z,78.80
2018-05-04T06:20:04.205Z,78.70
2018-05-04T06:22:31.651Z,78.80
2018-05-04T06:24:59.930Z,78.70
2018-05-04T06:27:27.317Z,78.70
2018-05-04T06:29:54.772Z,79.00
2018-05-04T06:32:22.980Z,78.70
2018-05-04T06:34:50.429Z,78.70
2018-05-04T06:37:17.865Z,78.50
2018-05-04T06:39:45.372Z,78.50
2018-05-04T06:42:12.773Z,78.40
2018-05-04T06:44:40.228Z,78.30
2018-05-04T06:47:07.668Z,78.10
2018-05-04T06:49:35.121Z,78.00
2018-05-04T06:52:02.591Z,77.90
2018-05-04T06:54:30.054Z,77.90
2018-05-04T06:56:57.538Z,77.80
2018-05-04T06:59:25.810Z,78.00
2018-05-04T07:01:53.218Z,78.00
2018-05-04T07:04:20.684Z,78.10
2018-05-04T07:06:48.115Z,78.20
2018-05-04T07:09:15.578Z,78.20
2018-05-04T07:11:43.009Z,78.50
2018-05-04T07:14:11.229Z,78.60
2018-05-04T07:16:38.672Z,78.60
2018-05-04T07:19:06.129Z,78.10
2018-05-04T07:21:33.577Z,78.40
2018-05-04T07:24:01.020Z,78.10
2018-05-04T07:26:28.469Z,78.30
2018-05-04T07:28:56.678Z,77.40
2018-05-04T07:31:24.130Z,77.40
2018-05-04T07:33:51.595Z,77.20
2018-05-04T07:36:19.043Z,77.00
2018-05-04T07:38:46.474Z,77.20
2018-05-04T07:41:13.923Z,77.10
2018-05-04T07:43:41.377Z,76.70
2018-05-04T07:46:08.828Z,76.90
2018-05-04T07:48:36.325Z,77.00
2018-05-04T07:51:04.486Z,76.70
2018-05-04T07:53:31.928Z,76.70
2018-05-04T07:55:59.384Z,76.60
2018-05-04T07:58:26.825Z,76.60
2018-05-04T08:00:54.288Z,76.30
2018-05-04T08:03:21.727Z,76.20
2018-05-04T08:05:49.938Z,76.30
2018-05-04T08:08:17.389Z,76.20
2018-05-04T08:10:44.829Z,76.20
2018-05-04T08:13:12.264Z,76.20
2018-05-04T08:15:40.490Z,76.20
2018-05-04T08:18:07.929Z,76.10
2018-05-04T08:20:35.385Z,76.00
2018-05-04T08:23:02.828Z,75.90
2018-05-04T08:25:30.276Z,75.90
2018-05-04T08:27:57.719Z,75.70
2018-05-04T08:30:25.173Z,75.70
2018-05-04T08:32:53.373Z,75.60
2018-05-04T08:35:20.928Z,75.60
2018-05-04T08:37:48.268Z,75.40
2018-05-04T08:40:15.718Z,75.30
2018-05-04T08:42:43.158Z,75.20
2018-05-04T08:45:11.375Z,74.90
2018-05-04T08:47:38.815Z,74.80
2018-05-04T08:50:06.260Z,74.60
2018-05-04T08:52:33.712Z,74.70
2018-05-04T08:55:01.161Z,75.10
2018-05-04T08:57:29.388Z,74.40
2018-05-04T08:59:56.829Z,74.40
2018-05-04T09:02:24.266Z,74.40
2018-05-04T09:04:51.721Z,74.50
2018-05-04T09:07:19.162Z,74.30
2018-05-04T09:09:46.600Z,74.20
2018-05-04T09:12:14.816Z,73.60
2018-05-04T09:14:42.268Z,73.70
2018-05-04T09:17:09.722Z,73.50
2018-05-04T09:19:37.172Z,73.10
2018-05-04T09:22:04.612Z,73.30
2018-05-04T09:24:32.065Z,73.30
2018-05-04T09:26:59.530Z,73.30
2018-05-04T09:29:26.981Z,73.10
2018-05-04T09:31:54.435Z,73.20
2018-05-04T09:34:21.881Z,73.00
2018-05-04T09:36:50.107Z,72.80
2018-05-04T09:39:17.539Z,72.80
2018-05-04T09:41:44.988Z,72.80
2018-05-04T09:44:12.519Z,72.70
2018-05-04T09:46:39.884Z,72.60
2018-05-04T09:49:07.500Z,72.70
2018-05-04T09:51:35.538Z,72.80
2018-05-04T09:54:02.973Z,72.80
2018-05-04T09:56:30.442Z,72.80
2018-05-04T09:58:57.881Z,72.60
2018-05-04T10:01:25.341Z,72.60
2018-05-04T10:03:52.782Z,72.60
2018-05-04T10:06:21.018Z,72.50
2018-05-04T10:08:48.462Z,72.40
2018-05-04T10:11:15.913Z,72.40
2018-05-04T10:13:43.362Z,72.50
2018-05-04T10:16:10.883Z,72.80
2018-05-04T10:18:38.255Z,72.60
2018-05-04T10:21:05.715Z,72.70
2018-05-04T10:23:33.159Z,72.80
2018-05-04T10:26:00.593Z,73.10
2018-05-04T10:28:28.813Z,72.80
2018-05-04T10:30:56.262Z,72.80
2018-05-04T10:33:23.710Z,72.90
2018-05-04T10:35:51.923Z,73.40
2018-05-04T10:38:19.572Z,73.20
2018-05-04T10:40:46.813Z,72.90
2018-05-04T10:43:14.260Z,73.20
2018-05-04T10:45:41.749Z,73.30
2018-05-04T10:48:10.447Z,73.90
2018-05-04T10:50:38.663Z,72.70
2018-05-04T10:53:06.120Z,72.70
2018-05-04T10:55:33.565Z,72.50
2018-05-04T10:58:01.031Z,72.10
2018-05-04T11:00:28.480Z,71.90
2018-05-04T11:02:55.941Z,71.80
2018-05-04T11:05:23.462Z,72.90
2018-05-04T11:07:50.841Z,72.40
2018-05-04T11:10:18.297Z,72.30
2018-05-04T11:12:45.759Z,72.40
2018-05-04T11:15:13.273Z,72.50
2018-05-04T11:17:40.708Z,73.10
2018-05-04T11:20:08.144Z,72.80
2018-05-04T11:22:35.594Z,73.10
2018-05-04T11:25:03.132Z,73.00
2018-05-04T11:27:30.585Z,73.50
2018-05-04T11:29:58.096Z,73.40
2018-05-04T11:32:25.548Z,74.50
2018-05-04T11:34:52.996Z,73.70
2018-05-04T11:37:20.457Z,74.20
2018-05-04T11:39:47.909Z,73.60
2018-05-04T11:42:15.364Z,73.90
2018-05-04T11:44:42.817Z,74.50
2018-05-04T11:47:10.289Z,74.20
2018-05-04T11:49:37.788Z,73.30
2018-05-04T11:52:05.218Z,73.50
2018-05-04T11:54:33.459Z,73.10
2018-05-04T11:57:00.906Z,73.10
2018-05-04T11:59:28.366Z,73.40
2018-05-04T12:01:55.923Z,73.20
2018-05-04T12:04:23.364Z,74.30
2018-05-04T12:06:50.811Z,73.10
2018-05-04T12:09:18.287Z,72.80
2018-05-04T12:11:45.758Z,72.80
2018-05-04T12:14:13.208Z,72.90
2018-05-04T12:16:40.660Z,72.30
2018-05-04T12:19:08.093Z,72.90
2018-05-04T12:21:35.543Z,72.80
2018-05-04T12:24:03.037Z,73.20
2018-05-04T12:26:30.524Z,71.50
2018-05-04T12:28:57.990Z,71.30
2018-05-04T12:31:25.429Z,70.70
2018-05-04T12:33:53.639Z,71.00
2018-05-04T12:36:21.322Z,70.90
2018-05-04T12:38:48.768Z,71.10
2018-05-04T12:41:16.242Z,71.50
2018-05-04T12:43:43.693Z,71.70
2018-05-04T12:46:11.157Z,71.00
2018-05-04T12:48:38.597Z,70.50
2018-05-04T12:51:06.051Z,70.80
2018-05-04T12:53:33.584Z,71.10
2018-05-04T12:56:00.945Z,70.80
2018-05-04T12:58:28.420Z,70.40
2018-05-04T13:00:56.621Z,70.40
2018-05-04T13:03:24.079Z,70.30
2018-05-04T13:05:51.554Z,71.30
2018-05-04T13:08:19.031Z,71.60
2018-05-04T13:10:46.481Z,71.80
2018-05-04T13:13:13.924Z,71.70
2018-05-04T13:15:42.132Z,71.00
2018-05-04T13:18:09.623Z,71.00
2018-05-04T13:20:37.121Z,70.40
2018-05-04T13:23:05.322Z,70.70
2018-05-04T13:25:32.769Z,70.70
2018-05-04T13:28:00.221Z,70.80
2018-05-04T13:30:27.670Z,71.60
2018-05-04T13:32:55.112Z,71.50
2018-05-04T13:35:22.573Z,71.30
2018-05-04T13:37:50.042Z,71.10
2018-05-04T13:40:17.509Z,71.30
2018-05-04T13:42:44.957Z,71.10
2018-05-04T13:45:12.412Z,71.10
2018-05-04T13:47:39.859Z,71.20
2018-05-04T13:50:07.301Z,70.10
2018-05-04T13:52:34.733Z,70.30
2018-05-04T13:55:02.960Z,70.10
2018-05-04T13:57:30.404Z,70.10
2018-05-04T13:59:57.860Z,70.50
2018-05-04T14:02:25.372Z,70.80
2018-05-04T14:04:52.814Z,71.10
2018-05-04T14:07:20.289Z,71.00
2018-05-04T14:09:48.510Z,70.70
2018-05-04T14:12:15.955Z,70.70
2018-05-04T14:14:43.414Z,71.60
2018-05-04T14:17:10.848Z,70.90
2018-05-04T14:19:38.300Z,70.90
2018-05-04T14:22:05.739Z,70.60
2018-05-04T14:24:33.952Z,70.80
2018-05-04T14:27:01.388Z,70.80
2018-05-04T14:29:28.846Z,71.00
2018-05-04T14:31:56.277Z,71.00
2018-05-04T14:34:24.531Z,71.50
2018-05-04T14:36:51.963Z,71.50
2018-05-04T14:39:19.429Z,70.50
2018-05-04T14:41:46.862Z,70.00
2018-05-04T14:44:14.298Z,69.40
2018-05-04T14:46:41.745Z,68.20
2018-05-04T14:49:09.184Z,68.10
2018-05-04T14:51:37.404Z,67.90
2018-05-04T14:54:04.843Z,67.90
2018-05-04T14:56:32.287Z,67.90
2018-05-04T14:58:59.728Z,68.20
2018-05-04T15:01:27.938Z,69.00
2018-05-04T15:03:55.444Z,68.90
2018-05-04T15:06:22.846Z,68.60
2018-05-04T15:08:50.291Z,69.00
2018-05-04T15:11:17.968Z,69.70
2018-05-04T15:13:45.417Z,69.90
2018-05-04T15:16:12.877Z,70.20
2018-05-04T15:18:40.330Z,70.00
2018-05-04T15:21:07.771Z,70.30
2018-05-04T15:23:35.219Z,69.90
2018-05-04T15:26:02.676Z,70.30
2018-05-04T15:28:30.126Z,70.30
2018-05-04T15:30:57.594Z,71.00
2018-05-04T15:33:25.044Z,70.10
2018-05-04T15:35:52.506Z,70.30
2018-05-04T15:38:19.993Z,70.20
2018-05-04T15:40:47.450Z,70.70
2018-05-04T15:43:14.888Z,69.80
2018-05-04T15:45:42.367Z,70.10
2018-05-04T15:48:15.463Z,70.50
2018-05-04T15:50:48.717Z,70.90
2018-05-04T15:53:16.175Z,72.00
2018-05-04T15:55:43.649Z,71.00
2018-05-04T15:58:11.102Z,70.80
2018-05-04T16:00:38.553Z,70.70
2018-05-04T16:03:05.996Z,69.80
2018-05-04T16:05:33.456Z,69.90
2018-05-04T16:08:00.943Z,69.50
2018-05-04T16:10:28.393Z,69.60
2018-05-04T16:12:55.867Z,69.60
2018-05-04T16:15:23.305Z,70.10
2018-05-04T16:17:50.739Z,69.60
2018-05-04T16:20:18.184Z,69.90
2018-05-04T16:22:45.644Z,70.30
2018-05-04T16:25:13.076Z,69.80
2018-05-04T16:27:40.534Z,70.00
2018-05-04T16:30:07.987Z,70.20
2018-05-04T16:32:35.459Z,70.20
2018-05-04T16:35:02.889Z,70.00
2018-05-04T16:37:31.111Z,70.30
2018-05-04T16:39:58.653Z,70.30
2018-05-04T16:42:26.097Z,70.50
2018-05-04T16:44:53.665Z,70.60
2018-05-04T16:47:22.935Z,70.80
2018-05-04T16:49:51.223Z,71.40
2018-05-04T16:52:18.674Z,71.40
2018-05-04T16:54:46.114Z,71.80
2018-05-04T16:57:14.333Z,71.70
2018-05-04T16:59:41.809Z,71.60
2018-05-04T17:02:09.270Z,71.70
2018-05-04T17:04:36.713Z,71.80
2018-05-04T17:07:04.236Z,72.00
2018-05-04T17:09:31.657Z,72.10
2018-05-04T17:11:59.893Z,71.70
2018-05-04T17:14:27.327Z,71.70
2018-05-04T17:16:54.777Z,71.90
2018-05-04T17:19:22.212Z,72.00
2018-05-04T17:21:49.669Z,72.10
2018-05-04T17:24:17.150Z,72.30
2018-05-04T17:26:44.605Z,72.50
2018-05-04T17:29:12.060Z,72.60
2018-05-04T17:31:39.516Z,72.40
2018-05-04T17:34:07.044Z,72.00
2018-05-04T17:36:34.409Z,72.00
2018-05-04T17:39:01.853Z,71.90
2018-05-04T17:41:30.063Z,71.70
2018-05-04T17:43:57.501Z,71.70
2018-05-04T17:46:24.958Z,71.70
2018-05-04T17:48:52.404Z,71.80
2018-05-04T17:51:19.862Z,72.00
2018-05-04T17:53:47.299Z,72.60
2018-05-04T17:56:15.508Z,71.10
2018-05-04T17:58:42.957Z,71.10
2018-05-04T18:01:10.468Z,71.50
2018-05-04T18:03:37.850Z,71.70
2018-05-04T18:06:05.286Z,71.40
2018-05-04T18:08:33.511Z,71.40
2018-05-04T18:11:00.958Z,71.40
2018-05-04T18:13:28.409Z,71.40
2018-05-04T18:15:55.854Z,71.70
2018-05-04T18:18:24.247Z,71.80
2018-05-04T18:20:51.683Z,71.50
2018-05-04T18:23:19.135Z,71.20
2018-05-04T18:25:46.564Z,71.30
2018-05-04T18:28:14.790Z,71.20
2018-05-04T18:30:42.220Z,71.20
2018-05-04T18:33:10.411Z,71.20
2018-05-04T18:35:37.868Z,71.10
2018-05-04T18:38:05.391Z,71.10
2018-05-04T18:40:33.600Z,71.20
2018-05-04T18:43:01.058Z,71.20
2018-05-04T18:45:28.503Z,71.00
2018-05-04T18:47:55.939Z,70.70
2018-05-04T18:50:23.415Z,70.80
2018-05-04T18:52:50.850Z,70.90
2018-05-04T18:55:18.296Z,70.90
2018-05-04T18:57:46.513Z,70.90
2018-05-04T19:00:13.959Z,70.90
2018-05-04T19:02:47.110Z,70.20
2018-05-04T19:05:15.307Z,69.20
2018-05-04T19:07:42.753Z,69.20
2018-05-04T19:10:10.188Z,67.30
2018-05-04T19:12:38.414Z,61.90
2018-05-04T19:15:05.869Z,61.80
2018-05-04T19:17:33.318Z,63.10
2018-05-04T19:20:00.775Z,64.50
2018-05-04T19:22:28.212Z,64.80
2018-05-04T19:24:55.670Z,64.10
2018-05-04T19:27:23.108Z,62.00
2018-05-04T19:29:50.579Z,63.00
2018-05-04T19:32:18.010Z,64.10
2018-05-04T19:34:46.236Z,59.80
2018-05-04T19:37:13.696Z,59.80
2018-05-04T19:39:41.143Z,60.60
2018-05-04T19:42:09.380Z,61.30
2018-05-04T19:44:36.797Z,61.20
2018-05-04T19:47:04.282Z,59.50
2018-05-04T19:49:32.493Z,58.60
2018-05-04T19:51:59.937Z,58.50
2018-05-04T19:54:27.389Z,58.50
2018-05-04T19:56:54.830Z,58.90
2018-05-04T19:59:22.300Z,58.10
2018-05-04T20:01:49.735Z,57.40
2018-05-04T20:04:17.952Z,58.00
2018-05-04T20:06:45.394Z,58.10
2018-05-04T20:09:12.854Z,58.70
2018-05-04T20:11:40.292Z,56.40
2018-05-04T20:14:07.748Z,57.40
2018-05-04T20:16:35.180Z,57.10
2018-05-04T20:19:03.483Z,56.80
2018-05-04T20:21:30.871Z,56.80
2018-05-04T20:23:58.312Z,56.20
2018-05-04T20:26:26.741Z,56.00
2018-05-04T20:28:54.239Z,56.30
2018-05-04T20:31:21.676Z,56.10
2018-05-04T20:33:49.126Z,56.70
2018-05-04T20:36:16.576Z,55.80
2018-05-04T20:38:44.029Z,56.00
2018-05-04T20:41:11.466Z,55.80
2018-05-04T20:43:39.693Z,56.40
2018-05-04T20:46:07.134Z,56.40
2018-05-04T20:48:34.582Z,55.90
2018-05-04T20:51:02.060Z,55.80
2018-05-04T20:53:29.490Z,55.80
2018-05-04T20:55:56.947Z,56.60
2018-05-04T20:58:24.384Z,55.80
2018-05-04T21:00:52.610Z,56.00
2018-05-04T21:03:20.070Z,56.00
2018-05-04T21:05:47.513Z,56.40
2018-05-04T21:08:14.952Z,56.80
2018-05-04T21:10:42.406Z,56.50
2018-05-04T21:13:09.863Z,56.80
2018-05-04T21:15:37.323Z,57.10
2018-05-04T21:18:04.752Z,57.20
2018-05-04T21:20:32.195Z,57.40
2018-05-04T21:23:00.406Z,56.50
2018-05-04T21:25:27.851Z,56.50
2018-05-04T21:27:55.285Z,56.80
2018-05-04T21:30:23.518Z,57.70
2018-05-04T21:32:50.959Z,57.70
2018-05-04T21:35:18.412Z,57.20
2018-05-04T21:37:45.863Z,57.80
2018-05-04T21:40:13.331Z,57.70
2018-05-04T21:42:40.817Z,57.60
2018-05-04T21:45:08.244Z,58.00
2018-05-04T21:47:35.685Z,58.00
2018-05-04T21:50:03.139Z,58.20
2018-05-04T21:52:30.569Z,58.20
2018-05-04T21:54:58.031Z,58.50
2018-05-04T21:57:25.470Z,58.70
2018-05-04T21:59:53.685Z,58.20
2018-05-04T22:02:21.178Z,58.10
2018-05-04T22:04:48.651Z,58.40
2018-05-04T22:07:16.067Z,58.60
2018-05-04T22:09:43.521Z,58.70
2018-05-04T22:12:10.973Z,58.90
2018-05-04T22:14:38.421Z,59.20
2018-05-04T22:17:05.873Z,59.30
2018-05-04T22:19:33.318Z,59.30
2018-05-04T22:22:00.759Z,59.40
2018-05-04T22:24:28.205Z,59.30
2018-05-04T22:26:55.658Z,59.40
2018-05-04T22:29:23.096Z,59.50
2018-05-04T22:31:51.465Z,59.40
2018-05-04T22:34:19.717Z,59.50
2018-05-04T22:36:47.171Z,59.50
2018-05-04T22:39:15.377Z,60.10
2018-05-04T22:41:43.590Z,60.20
2018-05-04T22:44:11.029Z,60.20
2018-05-04T22:46:38.544Z,60.30
2018-05-04T22:49:05.928Z,60.50
2018-05-04T22:51:34.157Z,60.80
2018-05-04T22:54:01.593Z,60.80
2018-05-04T22:56:29.083Z,61.00
2018-05-04T22:58:56.476Z,61.20
2018-05-04T23:01:24.703Z,61.50
2018-05-04T23:03:52.153Z,61.50
2018-05-04T23:06:19.600Z,61.70
2018-05-04T23:08:47.045Z,62.00
2018-05-04T23:11:15.275Z,62.10
2018-05-04T23:13:43.725Z,62.50
2018-05-04T23:16:11.172Z,62.50
2018-05-04T23:18:38.616Z,62.70
2018-05-04T23:21:06.142Z,63.00
2018-05-04T23:23:33.517Z,63.10
2018-05-04T23:26:00.965Z,63.50
2018-05-04T23:28:28.429Z,63.50
2018-05-04T23:30:55.881Z,63.80
2018-05-04T23:33:23.340Z,64.10
2018-05-04T23:35:50.790Z,64.30
2018-05-04T23:38:18.996Z,64.60
2018-05-04T23:40:46.435Z,64.60
2018-05-04T23:43:13.885Z,64.70
2018-05-04T23:45:41.325Z,64.90
2018-05-04T23:48:08.784Z,65.10
2018-05-04T23:50:36.236Z,65.30
2018-05-04T23:53:03.687Z,65.50
2018-05-04T23:55:31.123Z,66.20
2018-05-04T23:57:58.574Z,65.30
